METAR Data
IDs: Format: Raw Decoded Include TAF

Data at: 0909 UTC 18 Jan 2019

METAR for:KFNL (Fort Collins/Lovelan, CO, US)
Text:KFNL 180856Z AUTO 17007KT 10SM CLR 00/M05 A2971 RMK AO2 SLP051 6//// T00001050 58009 FZRANO PNO $
Temperature: 0.0°C ( 32°F)
Dewpoint: -5.0°C ( 23°F) [RH = 69%]
Pressure (altimeter):29.71 inches Hg (1006.2 mb) [Sea level pressure: 1005.1 mb]
Winds:from the S (170 degrees) at 8 MPH (7 knots; 3.6 m/s)
Visibility:10 or more sm (16+ km)
Ceiling:at least 12,000 feet AGL
Clouds:sky clear below 12,000 feet AGL
QC Flag:automated observation with no human augmentation; SOME DATA ABOVE MAY BE INACCURATE!!!"$" is an indication the sensor requires maintenance.
Text:KFNL 180756Z AUTO 28003KT 10SM CLR 02/M05 A2972 RMK AO2 SLP056 T00171050 FZRANO PNO $
Temperature: 1.7°C ( 35°F)
Dewpoint: -5.0°C ( 23°F) [RH = 61%]
Pressure (altimeter):29.72 inches Hg (1006.5 mb) [Sea level pressure: 1005.6 mb]
Winds:from the W (280 degrees) at 3 MPH (3 knots; 1.5 m/s)
Visibility:10 or more sm (16+ km)
Ceiling:at least 12,000 feet AGL
Clouds:sky clear below 12,000 feet AGL
QC Flag:automated observation with no human augmentation; SOME DATA ABOVE MAY BE INACCURATE!!!"$" is an indication the sensor requires maintenance.
Text:KFNL 180656Z AUTO 02007KT 10SM CLR 03/M05 A2975 RMK AO2 SLP066 T00331050 401221067 PNO $
Temperature: 3.3°C ( 38°F)
Dewpoint: -5.0°C ( 23°F) [RH = 54%]
Pressure (altimeter):29.75 inches Hg (1007.5 mb) [Sea level pressure: 1006.6 mb]
Winds:from the NNE (20 degrees) at 8 MPH (7 knots; 3.6 m/s)
Visibility:10 or more sm (16+ km)
Ceiling:at least 12,000 feet AGL
Clouds:sky clear below 12,000 feet AGL
QC Flag:automated observation with no human augmentation; SOME DATA ABOVE MAY BE INACCURATE!!!"$" is an indication the sensor requires maintenance.
Text:KFNL 180556Z AUTO 32003KT 10SM BKN085 08/M04 A2974 RMK AO2 SLP055 6//// T00831044 10106 20050 55006 PNO $
Temperature: 8.3°C ( 47°F)
Dewpoint: -4.4°C ( 24°F) [RH = 40%]
Pressure (altimeter):29.74 inches Hg (1007.2 mb) [Sea level pressure: 1005.5 mb]
Winds:from the NW (320 degrees) at 3 MPH (3 knots; 1.5 m/s)
Visibility:10 or more sm (16+ km)
Ceiling:8500 feet AGL
Clouds: broken clouds at 8500 feet AGL
QC Flag:automated observation with no human augmentation; SOME DATA ABOVE MAY BE INACCURATE!!!"$" is an indication the sensor requires maintenance.
Text:KFNL 180456Z AUTO 33009KT 10SM SCT100 08/M06 A2973 RMK AO2 PK WND 29026/0357 SLP061 T00781056 PNO $
Temperature: 7.8°C ( 46°F)
Dewpoint: -5.6°C ( 22°F) [RH = 38%]
Pressure (altimeter):29.73 inches Hg (1006.9 mb) [Sea level pressure: 1006.1 mb]
Winds:from the NNW (330 degrees) at 10 MPH (9 knots; 4.6 m/s)
Visibility:10 or more sm (16+ km)
Ceiling:at least 12,000 feet AGL
Clouds: scattered clouds at 10000 feet AGL
QC Flag:automated observation with no human augmentation; SOME DATA ABOVE MAY BE INACCURATE!!!"$" is an indication the sensor requires maintenance.
Text:KFNL 180356Z AUTO 31016G26KT 10SM CLR 10/M05 A2973 RMK AO2 PK WND 29026/0356 SLP062 T01001050 PNO $
Temperature: 10.0°C ( 50°F)
Dewpoint: -5.0°C ( 23°F) [RH = 34%]
Pressure (altimeter):29.73 inches Hg (1006.9 mb) [Sea level pressure: 1006.2 mb]
Winds:from the NW (310 degrees) at 18 MPH (16 knots; 8.2 m/s) gusting to 30 MPH (26 knots; 13.4 m/s)
Visibility:10 or more sm (16+ km)
Ceiling:at least 12,000 feet AGL
Clouds:sky clear below 12,000 feet AGL
QC Flag:automated observation with no human augmentation; SOME DATA ABOVE MAY BE INACCURATE!!!"$" is an indication the sensor requires maintenance.
Text:KFNL 180256Z AUTO 27013KT 10SM OVC100 09/M04 A2976 RMK AO2 SLP081 6//// T00941039 58010 PNO $
Temperature: 9.4°C ( 49°F)
Dewpoint: -3.9°C ( 25°F) [RH = 39%]
Pressure (altimeter):29.76 inches Hg (1007.9 mb) [Sea level pressure: 1008.1 mb]
Winds:from the W (270 degrees) at 15 MPH (13 knots; 6.7 m/s)
Visibility:10 or more sm (16+ km)
Ceiling:10000 feet AGL
Clouds: overcast cloud deck at 10000 feet AGL
QC Flag:automated observation with no human augmentation; SOME DATA ABOVE MAY BE INACCURATE!!!"$" is an indication the sensor requires maintenance.
Text:KFNL 180156Z AUTO 25007KT 10SM BKN100 08/M06 A2980 RMK AO2 SLP099 T00831061 PNO $
Temperature: 8.3°C ( 47°F)
Dewpoint: -6.1°C ( 21°F) [RH = 35%]
Pressure (altimeter):29.80 inches Hg (1009.2 mb) [Sea level pressure: 1009.9 mb]
Winds:from the WSW (250 degrees) at 8 MPH (7 knots; 3.6 m/s)
Visibility:10 or more sm (16+ km)
Ceiling:10000 feet AGL
Clouds: broken clouds at 10000 feet AGL
QC Flag:automated observation with no human augmentation; SOME DATA ABOVE MAY BE INACCURATE!!!"$" is an indication the sensor requires maintenance.
Text:KFNL 180056Z AUTO VRB03KT 10SM CLR 07/M06 A2980 RMK AO2 SLP099 T00671056 PNO $
Temperature: 6.7°C ( 44°F)
Dewpoint: -5.6°C ( 22°F) [RH = 41%]
Pressure (altimeter):29.80 inches Hg (1009.2 mb) [Sea level pressure: 1009.9 mb]
Winds:variable direction winds at 3 MPH (3 knots; 1.5 m/s)
Visibility:10 or more sm (16+ km)
Ceiling:at least 12,000 feet AGL
Clouds:sky clear below 12,000 feet AGL
QC Flag:automated observation with no human augmentation; SOME DATA ABOVE MAY BE INACCURATE!!!"$" is an indication the sensor requires maintenance.
Text:KFNL 172356Z AUTO VRB03KT 10SM CLR 09/M08 A2979 RMK AO2 SLP087 6//// T00941078 10122 20044 58020 PNO $
Temperature: 9.4°C ( 49°F)
Dewpoint: -7.8°C ( 18°F) [RH = 29%]
Pressure (altimeter):29.79 inches Hg (1008.9 mb) [Sea level pressure: 1008.7 mb]
Winds:variable direction winds at 3 MPH (3 knots; 1.5 m/s)
Visibility:10 or more sm (16+ km)
Ceiling:at least 12,000 feet AGL
Clouds:sky clear below 12,000 feet AGL
QC Flag:automated observation with no human augmentation; SOME DATA ABOVE MAY BE INACCURATE!!!"$" is an indication the sensor requires maintenance.
Text:KFNL 172256Z AUTO VRB03KT 10SM FEW110 10/M06 A2983 RMK AO2 SLP085 T01001056 PNO $
Temperature: 10.0°C ( 50°F)
Dewpoint: -5.6°C ( 22°F) [RH = 33%]
Pressure (altimeter):29.83 inches Hg (1010.2 mb) [Sea level pressure: 1008.5 mb]
Winds:variable direction winds at 3 MPH (3 knots; 1.5 m/s)
Visibility:10 or more sm (16+ km)
Ceiling:at least 12,000 feet AGL
Clouds: few clouds at 11000 feet AGL
QC Flag:automated observation with no human augmentation; SOME DATA ABOVE MAY BE INACCURATE!!!"$" is an indication the sensor requires maintenance.
Text:KFNL 172156Z AUTO 03006KT 10SM OVC110 12/M06 A2985 RMK AO2 SLP103 T01171056 PNO $
Temperature: 11.7°C ( 53°F)
Dewpoint: -5.6°C ( 22°F) [RH = 29%]
Pressure (altimeter):29.85 inches Hg (1010.9 mb) [Sea level pressure: 1010.3 mb]
Winds:from the NNE (30 degrees) at 7 MPH (6 knots; 3.1 m/s)
Visibility:10 or more sm (16+ km)
Ceiling:11000 feet AGL
Clouds: overcast cloud deck at 11000 feet AGL
QC Flag:automated observation with no human augmentation; SOME DATA ABOVE MAY BE INACCURATE!!!"$" is an indication the sensor requires maintenance.
Text:KFNL 172056Z AUTO 03004KT 10SM CLR 11/M05 A2986 RMK AO2 SLP110 6//// T01061050 56035 PNO $
Temperature: 10.6°C ( 51°F)
Dewpoint: -5.0°C ( 23°F) [RH = 33%]
Pressure (altimeter):29.86 inches Hg (1011.3 mb) [Sea level pressure: 1011.0 mb]
Winds:from the NNE (30 degrees) at 5 MPH (4 knots; 2.1 m/s)
Visibility:10 or more sm (16+ km)
Ceiling:at least 12,000 feet AGL
Clouds:sky clear below 12,000 feet AGL
QC Flag:automated observation with no human augmentation; SOME DATA ABOVE MAY BE INACCURATE!!!"$" is an indication the sensor requires maintenance.
Text:KFNL 171956Z AUTO VRB05KT 10SM FEW100 09/M05 A2988 RMK AO2 SLP123 T00891050 PNO $
Temperature: 8.9°C ( 48°F)
Dewpoint: -5.0°C ( 23°F) [RH = 37%]
Pressure (altimeter):29.88 inches Hg (1011.9 mb) [Sea level pressure: 1012.3 mb]
Winds:variable direction winds at 6 MPH (5 knots; 2.6 m/s)
Visibility:10 or more sm (16+ km)
Ceiling:at least 12,000 feet AGL
Clouds: few clouds at 10000 feet AGL
QC Flag:automated observation with no human augmentation; SOME DATA ABOVE MAY BE INACCURATE!!!"$" is an indication the sensor requires maintenance.
Text:KFNL 171856Z AUTO 00000KT 10SM FEW110 07/M05 A2994 RMK AO2 SLP144 T00671050 PNO $
Temperature: 6.7°C ( 44°F)
Dewpoint: -5.0°C ( 23°F) [RH = 43%]
Pressure (altimeter):29.94 inches Hg (1014.0 mb) [Sea level pressure: 1014.4 mb]
Winds:calm
Visibility:10 or more sm (16+ km)
Ceiling:at least 12,000 feet AGL
Clouds: few clouds at 11000 feet AGL
QC Flag:automated observation with no human augmentation; SOME DATA ABOVE MAY BE INACCURATE!!!"$" is an indication the sensor requires maintenance.
Text:KFNL 171756Z AUTO 04007KT 10SM FEW100 06/M04 A2998 RMK AO2 SLP159 6//// T00561044 10056 21067 58006 PNO $
Temperature: 5.6°C ( 42°F)
Dewpoint: -4.4°C ( 24°F) [RH = 48%]
Pressure (altimeter):29.98 inches Hg (1015.3 mb) [Sea level pressure: 1015.9 mb]
Winds:from the NE (40 degrees) at 8 MPH (7 knots; 3.6 m/s)
Visibility:10 or more sm (16+ km)
Ceiling:at least 12,000 feet AGL
Clouds: few clouds at 10000 feet AGL
QC Flag:automated observation with no human augmentation; SOME DATA ABOVE MAY BE INACCURATE!!!"$" is an indication the sensor requires maintenance.
Text:KFNL 171656Z AUTO 36005KT 10SM CLR 02/M05 A3000 RMK AO2 SLP170 T00221050 FZRANO PNO $
Temperature: 2.2°C ( 36°F)
Dewpoint: -5.0°C ( 23°F) [RH = 59%]
Pressure (altimeter):30.00 inches Hg (1016.0 mb) [Sea level pressure: 1017.0 mb]
Winds:from the N (360 degrees) at 6 MPH (5 knots; 2.6 m/s)
Visibility:10 or more sm (16+ km)
Ceiling:at least 12,000 feet AGL
Clouds:sky clear below 12,000 feet AGL
QC Flag:automated observation with no human augmentation; SOME DATA ABOVE MAY BE INACCURATE!!!"$" is an indication the sensor requires maintenance.
Text:KFNL 171556Z AUTO 03004KT 10SM CLR M02/M03 A3000 RMK AO2 SLP176 T10171033 FZRANO PNO $
Temperature: -1.7°C ( 29°F)
Dewpoint: -3.3°C ( 26°F) [RH = 89%]
Pressure (altimeter):30.00 inches Hg (1016.0 mb) [Sea level pressure: 1017.6 mb]
Winds:from the NNE (30 degrees) at 5 MPH (4 knots; 2.1 m/s)
Visibility:10 or more sm (16+ km)
Ceiling:at least 12,000 feet AGL
Clouds:sky clear below 12,000 feet AGL
QC Flag:automated observation with no human augmentation; SOME DATA ABOVE MAY BE INACCURATE!!!"$" is an indication the sensor requires maintenance.
Text:KFNL 171456Z AUTO 09006KT 10SM CLR M06/M07 A3000 RMK AO2 SLP184 6//// T10561072 53003 FZRANO PNO $
Temperature: -5.6°C ( 22°F)
Dewpoint: -7.2°C ( 19°F) [RH = 88%]
Pressure (altimeter):30.00 inches Hg (1016.0 mb) [Sea level pressure: 1018.4 mb]
Winds:from the E (90 degrees) at 7 MPH (6 knots; 3.1 m/s)
Visibility:10 or more sm (16+ km)
Ceiling:at least 12,000 feet AGL
Clouds:sky clear below 12,000 feet AGL
QC Flag:automated observation with no human augmentation; SOME DATA ABOVE MAY BE INACCURATE!!!"$" is an indication the sensor requires maintenance.
Text:KFNL 171356Z AUTO 04005KT 10SM CLR M06/M07 A3001 RMK AO2 SLP185 T10611072 FZRANO PNO $
Temperature: -6.1°C ( 21°F)
Dewpoint: -7.2°C ( 19°F) [RH = 92%]
Pressure (altimeter):30.01 inches Hg (1016.3 mb) [Sea level pressure: 1018.5 mb]
Winds:from the NE (40 degrees) at 6 MPH (5 knots; 2.6 m/s)
Visibility:10 or more sm (16+ km)
Ceiling:at least 12,000 feet AGL
Clouds:sky clear below 12,000 feet AGL
QC Flag:automated observation with no human augmentation; SOME DATA ABOVE MAY BE INACCURATE!!!"$" is an indication the sensor requires maintenance.
Text:KFNL 171256Z AUTO 00000KT 10SM CLR M04/M06 A2998 RMK AO2 SLP171 T10391061 FZRANO PNO $
Temperature: -3.9°C ( 25°F)
Dewpoint: -6.1°C ( 21°F) [RH = 85%]
Pressure (altimeter):29.98 inches Hg (1015.3 mb) [Sea level pressure: 1017.1 mb]
Winds:calm
Visibility:10 or more sm (16+ km)
Ceiling:at least 12,000 feet AGL
Clouds:sky clear below 12,000 feet AGL
QC Flag:automated observation with no human augmentation; SOME DATA ABOVE MAY BE INACCURATE!!!"$" is an indication the sensor requires maintenance.
Text:KFNL 171156Z AUTO 00000KT 10SM CLR M02/M06 A2999 RMK AO2 SLP164 6//// 7//// T10171056 10044 21044 56012 FZRANO PNO $
Temperature: -1.7°C ( 29°F)
Dewpoint: -5.6°C ( 22°F) [RH = 75%]
Pressure (altimeter):29.99 inches Hg (1015.7 mb) [Sea level pressure: 1016.4 mb]
Winds:calm
Visibility:10 or more sm (16+ km)
Ceiling:at least 12,000 feet AGL
Clouds:sky clear below 12,000 feet AGL
QC Flag:automated observation with no human augmentation; SOME DATA ABOVE MAY BE INACCURATE!!!"$" is an indication the sensor requires maintenance.
Text:KFNL 171056Z AUTO 16004KT 10SM CLR 04/M07 A3000 RMK AO2 SLP151 T00391067 PNO $
Temperature: 3.9°C ( 39°F)
Dewpoint: -6.7°C ( 20°F) [RH = 46%]
Pressure (altimeter):30.00 inches Hg (1016.0 mb) [Sea level pressure: 1015.1 mb]
Winds:from the SSE (160 degrees) at 5 MPH (4 knots; 2.1 m/s)
Visibility:10 or more sm (16+ km)
Ceiling:at least 12,000 feet AGL
Clouds:sky clear below 12,000 feet AGL
QC Flag:automated observation with no human augmentation; SOME DATA ABOVE MAY BE INACCURATE!!!"$" is an indication the sensor requires maintenance.
Text:KFNL 170956Z AUTO VRB03KT 10SM CLR M02/M06 A3002 RMK AO2 SLP176 T10221056 FZRANO PNO $
Temperature: -2.2°C ( 28°F)
Dewpoint: -5.6°C ( 22°F) [RH = 77%]
Pressure (altimeter):30.02 inches Hg (1016.7 mb) [Sea level pressure: 1017.6 mb]
Winds:variable direction winds at 3 MPH (3 knots; 1.5 m/s)
Visibility:10 or more sm (16+ km)
Ceiling:at least 12,000 feet AGL
Clouds:sky clear below 12,000 feet AGL
QC Flag:automated observation with no human augmentation; SOME DATA ABOVE MAY BE INACCURATE!!!"$" is an indication the sensor requires maintenance.
Text:KFNL 170856Z AUTO VRB03KT 10SM CLR M03/M06 A3003 RMK AO2 SLP183 6//// T10331061 53002 FZRANO PNO $
Temperature: -3.3°C ( 26°F)
Dewpoint: -6.1°C ( 21°F) [RH = 81%]
Pressure (altimeter):30.03 inches Hg (1017.0 mb) [Sea level pressure: 1018.3 mb]
Winds:variable direction winds at 3 MPH (3 knots; 1.5 m/s)
Visibility:10 or more sm (16+ km)
Ceiling:at least 12,000 feet AGL
Clouds:sky clear below 12,000 feet AGL
QC Flag:automated observation with no human augmentation; SOME DATA ABOVE MAY BE INACCURATE!!!"$" is an indication the sensor requires maintenance.
Text:KFNL 170756Z AUTO 00000KT 10SM CLR M03/M06 A3002 RMK AO2 SLP179 T10331061 FZRANO PNO $
Temperature: -3.3°C ( 26°F)
Dewpoint: -6.1°C ( 21°F) [RH = 81%]
Pressure (altimeter):30.02 inches Hg (1016.7 mb) [Sea level pressure: 1017.9 mb]
Winds:calm
Visibility:10 or more sm (16+ km)
Ceiling:at least 12,000 feet AGL
Clouds:sky clear below 12,000 feet AGL
QC Flag:automated observation with no human augmentation; SOME DATA ABOVE MAY BE INACCURATE!!!"$" is an indication the sensor requires maintenance.
Text:KFNL 170656Z AUTO 00000KT 10SM CLR M02/M06 A3002 RMK AO2 SLP181 T10221056 400781039 FZRANO PNO $
Temperature: -2.2°C ( 28°F)
Dewpoint: -5.6°C ( 22°F) [RH = 77%]
Pressure (altimeter):30.02 inches Hg (1016.7 mb) [Sea level pressure: 1018.1 mb]
Winds:calm
Visibility:10 or more sm (16+ km)
Ceiling:at least 12,000 feet AGL
Clouds:sky clear below 12,000 feet AGL
QC Flag:automated observation with no human augmentation; SOME DATA ABOVE MAY BE INACCURATE!!!"$" is an indication the sensor requires maintenance.
Text:KFNL 170556Z AUTO 25003KT 10SM CLR M02/M06 A3003 RMK AO2 SLP181 6//// T10171056 10056 21039 53006 FZRANO PNO $
Temperature: -1.7°C ( 29°F)
Dewpoint: -5.6°C ( 22°F) [RH = 75%]
Pressure (altimeter):30.03 inches Hg (1017.0 mb) [Sea level pressure: 1018.1 mb]
Winds:from the WSW (250 degrees) at 3 MPH (3 knots; 1.5 m/s)
Visibility:10 or more sm (16+ km)
Ceiling:at least 12,000 feet AGL
Clouds:sky clear below 12,000 feet AGL
QC Flag:automated observation with no human augmentation; SOME DATA ABOVE MAY BE INACCURATE!!!"$" is an indication the sensor requires maintenance.
Text:KFNL 170456Z AUTO 14003KT 10SM CLR M01/M06 A3002 RMK AO2 SLP176 T10061056 FZRANO PNO $
Temperature: -0.6°C ( 31°F)
Dewpoint: -5.6°C ( 22°F) [RH = 69%]
Pressure (altimeter):30.02 inches Hg (1016.7 mb) [Sea level pressure: 1017.6 mb]
Winds:from the SE (140 degrees) at 3 MPH (3 knots; 1.5 m/s)
Visibility:10 or more sm (16+ km)
Ceiling:at least 12,000 feet AGL
Clouds:sky clear below 12,000 feet AGL
QC Flag:automated observation with no human augmentation; SOME DATA ABOVE MAY BE INACCURATE!!!"$" is an indication the sensor requires maintenance.
Text:KFNL 170356Z AUTO 20003KT 10SM CLR 01/M06 A3001 RMK AO2 SLP173 T00111061 FZRANO PNO $
Temperature: 1.1°C ( 34°F)
Dewpoint: -6.1°C ( 21°F) [RH = 59%]
Pressure (altimeter):30.01 inches Hg (1016.3 mb) [Sea level pressure: 1017.3 mb]
Winds:from the SSW (200 degrees) at 3 MPH (3 knots; 1.5 m/s)
Visibility:10 or more sm (16+ km)
Ceiling:at least 12,000 feet AGL
Clouds:sky clear below 12,000 feet AGL
QC Flag:automated observation with no human augmentation; SOME DATA ABOVE MAY BE INACCURATE!!!"$" is an indication the sensor requires maintenance.
Text:KFNL 170256Z AUTO 19006KT 10SM CLR 01/M06 A3000 RMK AO2 SLP176 6//// T00111061 53015 FZRANO PNO $
Temperature: 1.1°C ( 34°F)
Dewpoint: -6.1°C ( 21°F) [RH = 59%]
Pressure (altimeter):30.00 inches Hg (1016.0 mb) [Sea level pressure: 1017.6 mb]
Winds:from the S (190 degrees) at 7 MPH (6 knots; 3.1 m/s)
Visibility:10 or more sm (16+ km)
Ceiling:at least 12,000 feet AGL
Clouds:sky clear below 12,000 feet AGL
QC Flag:automated observation with no human augmentation; SOME DATA ABOVE MAY BE INACCURATE!!!"$" is an indication the sensor requires maintenance.
Text:KFNL 170156Z AUTO 19007KT 10SM CLR 02/M06 A2999 RMK AO2 SLP167 T00171061 FZRANO PNO $
Temperature: 1.7°C ( 35°F)
Dewpoint: -6.1°C ( 21°F) [RH = 56%]
Pressure (altimeter):29.99 inches Hg (1015.7 mb) [Sea level pressure: 1016.7 mb]
Winds:from the S (190 degrees) at 8 MPH (7 knots; 3.6 m/s)
Visibility:10 or more sm (16+ km)
Ceiling:at least 12,000 feet AGL
Clouds:sky clear below 12,000 feet AGL
QC Flag:automated observation with no human augmentation; SOME DATA ABOVE MAY BE INACCURATE!!!"$" is an indication the sensor requires maintenance.
Text:KFNL 170056Z AUTO 21005KT 10SM CLR 03/M07 A2996 RMK AO2 SLP159 T00281067 PNO $
Temperature: 2.8°C ( 37°F)
Dewpoint: -6.7°C ( 20°F) [RH = 50%]
Pressure (altimeter):29.96 inches Hg (1014.6 mb) [Sea level pressure: 1015.9 mb]
Winds:from the SSW (210 degrees) at 6 MPH (5 knots; 2.6 m/s)
Visibility:10 or more sm (16+ km)
Ceiling:at least 12,000 feet AGL
Clouds:sky clear below 12,000 feet AGL
QC Flag:automated observation with no human augmentation; SOME DATA ABOVE MAY BE INACCURATE!!!"$" is an indication the sensor requires maintenance.
Text:KFNL 162356Z AUTO 15004KT 10SM FEW080 OVC095 05/M07 A2995 RMK AO2 SLP149 6//// T00501067 10078 20028 53014 PNO $
Temperature: 5.0°C ( 41°F)
Dewpoint: -6.7°C ( 20°F) [RH = 42%]
Pressure (altimeter):29.95 inches Hg (1014.3 mb) [Sea level pressure: 1014.9 mb]
Winds:from the SSE (150 degrees) at 5 MPH (4 knots; 2.1 m/s)
Visibility:10 or more sm (16+ km)
Ceiling:9500 feet AGL
Clouds: few clouds at 8000 feet AGL, overcast cloud deck at 9500 feet AGL
QC Flag:automated observation with no human augmentation; SOME DATA ABOVE MAY BE INACCURATE!!!"$" is an indication the sensor requires maintenance.
Text:KFNL 162256Z AUTO 14004KT 10SM SCT090 07/M07 A2994 RMK AO2 SLP139 T00721072 PNO $
Temperature: 7.2°C ( 45°F)
Dewpoint: -7.2°C ( 19°F) [RH = 35%]
Pressure (altimeter):29.94 inches Hg (1014.0 mb) [Sea level pressure: 1013.9 mb]
Winds:from the SE (140 degrees) at 5 MPH (4 knots; 2.1 m/s)
Visibility:10 or more sm (16+ km)
Ceiling:at least 12,000 feet AGL
Clouds: scattered clouds at 9000 feet AGL
QC Flag:automated observation with no human augmentation; SOME DATA ABOVE MAY BE INACCURATE!!!"$" is an indication the sensor requires maintenance.
Text:KFNL 162156Z AUTO 13005KT 10SM SCT110 06/M08 A2992 RMK AO2 SLP138 T00561078 PNO $
Temperature: 5.6°C ( 42°F)
Dewpoint: -7.8°C ( 18°F) [RH = 37%]
Pressure (altimeter):29.92 inches Hg (1013.3 mb) [Sea level pressure: 1013.8 mb]
Winds:from the SE (130 degrees) at 6 MPH (5 knots; 2.6 m/s)
Visibility:10 or more sm (16+ km)
Ceiling:at least 12,000 feet AGL
Clouds: scattered clouds at 11000 feet AGL
QC Flag:automated observation with no human augmentation; SOME DATA ABOVE MAY BE INACCURATE!!!"$" is an indication the sensor requires maintenance.